Latest Weather Observations for Archerfield

IDQ60901

Issued at 6:21 pm EST Thursday 23 March 2017 (issued every 10 minutes, with the page automatically refreshed every 10 minutes)

About weather observations | Map of Brisbane area stations | Latest observations for Brisbane area | Other Formats
Station Details ID: 040211 Name: ARCHERFIELD AIRPORT Lat: -27.57 Lon: 153.01 Height: 12.5 m
Data from the previous 72 hours. | See also: Recent months at Archerfield
Date/Time
EST
Temp
°C
App
Temp
°C
Dew
Point
°C
Rel
Hum
%
Delta-T
°C
Wind Press
QNH
hPa
Press
MSL
hPa
Rain since
9am
mm
Dir  Spd
km/h
Gust
km/h
Spd
kts
Gust
kts
23/06:00pm 26.1 28.0 21.3 75 3.2 ENE 13 17 7 9 1014.6 1014.5 0.0
23/05:30pm 26.3 27.4 21.3 74 3.3 NE 17 24 9 13 1014.5 1014.4 0.0
23/05:00pm 26.9 27.3 20.7 69 4.1 NE 19 24 10 13 1014.3 1014.2 0.0
23/04:30pm 27.8 28.1 19.6 61 5.3 ENE 17 20 9 11 1013.9 1013.8 0.0
23/04:00pm 28.2 29.2 19.4 59 5.7 NE 13 19 7 10 1013.6 1013.5 0.0
23/03:30pm 28.5 29.2 18.9 56 6.2 NE 13 17 7 9 1013.7 1013.6 0.0
23/03:00pm 28.8 29.5 18.0 52 6.9 NE 11 17 6 9 1013.7 1013.6 0.0
23/02:30pm 28.8 29.1 18.0 52 6.9 NNE 13 19 7 10 1013.8 1013.7 0.0
23/02:00pm 28.7 29.5 19.1 56 6.2 NNE 13 20 7 11 1013.9 1013.8 0.0
23/01:30pm 28.6 28.6 19.0 56 6.2 NNE 17 24 9 13 1014.0 1013.9 0.0
23/01:00pm 29.7 31.2 20.5 57 6.1 NE 13 20 7 11 1014.4 1014.3 0.0
23/12:30pm 29.1 31.0 20.5 59 5.7 N 11 20 6 11 1015.1 1015.0 0.0
23/12:00pm 28.4 30.1 20.9 64 5.0 NNE 13 19 7 10 1015.5 1015.4 0.0
23/11:30am 27.5 30.5 22.0 72 3.7 NE 9 15 5 8 1015.9 1015.8 0.0
23/11:00am 27.0 30.7 22.2 75 3.2 ENE 6 11 3 6 1016.2 1016.1 0.0
23/10:30am 26.7 30.6 21.9 75 3.2 WNW 4 9 2 5 1016.4 1016.3 0.0
23/10:00am 25.8 30.4 22.5 82 2.2 WNW 2 7 1 4 1016.5 1016.4 0.0
23/09:30am 25.2 30.2 22.5 85 1.8 CALM 0 4 0 2 1016.6 1016.5 0.0
23/09:00am 24.6 28.1 22.1 86 1.7 SSW 7 9 4 5 1016.6 1016.5 5.0
23/08:30am 24.1 27.9 22.4 90 1.1 SW 6 13 3 7 1016.4 1016.3 5.0
23/08:00am 23.6 28.3 22.0 91 1.1 CALM 0 0 0 0 1016.1 1016.0 5.0
23/07:30am 23.2 27.8 21.8 92 0.9 CALM 0 2 0 1 1015.7 1015.6 5.0
23/07:00am 23.0 27.7 22.0 94 0.7 CALM 0 0 0 0 1015.4 1015.3 5.0
23/06:33am 22.9 26.9 22.1 95 0.5 WSW 4 7 2 4 1015.3 1015.2 5.0
23/06:30am 22.9 27.3 22.1 95 0.5 SW 2 7 1 4 1015.2 1015.1 5.0
23/06:21am 22.8 27.5 22.0 95 0.5 CALM 0 0 0 0 1015.1 1015.0 5.0
23/06:00am 22.6 27.1 21.6 94 0.7 CALM 0 0 0 0 1015.0 1014.9 5.0
23/05:30am 22.6 27.1 21.6 94 0.7 CALM 0 0 0 0 1014.9 1014.8 5.0
23/05:23am 22.6 27.2 21.8 95 0.5 CALM 0 0 0 0 1014.9 1014.8 5.0
23/05:00am 22.7 26.6 21.9 95 0.5 WSW 4 6 2 3 1014.7 1014.6 5.0
23/04:30am 22.7 27.4 21.9 95 0.5 CALM 0 0 0 0 1014.4 1014.3 5.0
23/04:00am 22.7 27.4 21.9 95 0.5 CALM 0 0 0 0 1014.2 1014.1 5.0
23/03:50am 22.7 27.4 21.9 95 0.5 CALM 0 0 0 0 1014.2 1014.1 5.0
23/03:43am 22.7 27.4 21.9 95 0.5 CALM 0 0 0 0 1014.1 1014.0 5.0
23/03:30am 22.7 27.4 21.9 95 0.5 CALM 0 0 0 0 1014.0 1013.9 5.0
23/03:15am 22.8 27.5 22.0 95 0.5 CALM 0 0 0 0 1014.1 1014.0 5.0
23/03:00am 22.8 27.5 22.0 95 0.5 CALM 0 0 0 0 1014.2 1014.1 5.0
23/02:53am 22.8 27.5 22.0 95 0.5 CALM 0 0 0 0 1014.2 1014.1 5.0
23/02:45am 22.7 27.3 21.7 94 0.7 CALM 0 0 0 0 1014.3 1014.2 5.0
23/02:30am 22.6 27.1 21.6 94 0.7 CALM 0 0 0 0 1014.4 1014.3 5.0
23/02:00am 22.7 27.3 21.7 94 0.7 CALM 0 0 0 0 1014.5 1014.4 5.0
23/01:30am 22.7 27.3 21.7 94 0.7 CALM 0 0 0 0 1014.5 1014.4 5.0
23/01:00am 22.7 26.9 21.7 94 0.7 WSW 2 6 1 3 1014.8 1014.7 5.0
23/12:30am 22.7 26.1 21.7 94 0.7 WSW 6 7 3 4 1015.2 1015.1 5.0
23/12:00am 22.6 26.7 21.6 94 0.7 SW 2 6 1 3 1015.3 1015.2 5.0
 
Date/Time
EST
Temp
°C
App
Temp
°C
Dew
Point
°C
Rel
Hum
%
Delta-T
°C
Wind Press
QNH
hPa
Press
MSL
hPa
Rain since
9am
mm
Dir  Spd
km/h
Gust
km/h
Spd
kts
Gust
kts
22/11:30pm 22.8 26.3 21.8 94 0.7 SSW 6 6 3 3 1015.5 1015.4 5.0
22/11:00pm 23.0 27.6 21.8 93 0.8 CALM 0 0 0 0 1015.6 1015.5 5.0
22/10:30pm 23.0 27.6 21.8 93 0.8 CALM 0 0 0 0 1015.7 1015.6 5.0
22/10:00pm 23.0 26.5 21.8 93 0.8 SSW 6 7 3 4 1015.8 1015.7 5.0
22/09:30pm 23.2 27.8 21.8 92 0.9 CALM 0 0 0 0 1015.8 1015.7 5.0
22/09:00pm 23.3 27.6 21.9 92 0.9 SSE 2 6 1 3 1015.8 1015.7 5.0
22/08:30pm 23.4 26.9 22.2 93 0.8 S 7 9 4 5 1015.6 1015.5 5.0
22/08:00pm 23.6 28.4 22.2 92 0.9 CALM 0 0 0 0 1015.3 1015.2 5.0
22/07:30pm 23.8 27.5 22.6 93 0.8 S 7 7 4 4 1015.0 1014.9 5.0
22/07:00pm 23.8 28.4 22.4 92 0.9 SW 2 6 1 3 1014.8 1014.7 5.0
22/06:30pm 23.9 27.6 22.5 92 0.9 S 7 7 4 4 1014.6 1014.5 5.0
22/06:00pm 23.9 27.5 22.3 91 1.1 S 7 9 4 5 1014.5 1014.4 4.8
22/05:30pm 24.0 27.6 22.1 89 1.3 SSE 6 7 3 4 1014.5 1014.4 4.6
22/05:00pm 24.0 27.7 22.3 90 1.1 SSW 6 7 3 4 1014.1 1014.0 4.6
22/04:33pm 23.8 27.3 22.1 90 1.1 S 7 11 4 6 1013.9 1013.8 4.6
22/04:30pm 23.7 26.7 22.0 90 1.1 SSW 9 13 5 7 1013.9 1013.8 4.6
22/04:05pm 23.8 26.9 21.5 87 1.5 W 7 11 4 6 1014.1 1014.0 2.2
22/04:00pm 24.2 27.1 21.7 86 1.7 W 9 13 5 7 1014.1 1014.0 0.8
22/03:30pm 24.4 27.5 22.1 87 1.5 WSW 9 13 5 7 1014.0 1013.9 0.8
22/03:00pm 24.6 27.8 22.3 87 1.5 WSW 9 11 5 6 1013.9 1013.8 0.8
22/02:30pm 24.4 27.3 22.5 89 1.3 W 11 13 6 7 1013.9 1013.8 0.8
22/02:00pm 24.4 26.8 22.3 88 1.4 W 13 17 7 9 1014.2 1014.1 0.4
22/01:30pm 25.0 27.2 21.9 83 2.1 WNW 13 17 7 9 1014.4 1014.3 0.2
22/01:00pm 25.5 27.1 21.4 78 2.7 WNW 15 19 8 10 1014.5 1014.4 0.2
22/12:30pm 27.0 27.1 20.3 66 4.4 NNE 20 24 11 13 1014.6 1014.5 0.2
22/12:00pm 27.6 29.3 22.3 73 3.6 ENE 17 22 9 12 1014.9 1014.8 0.2
22/11:30am 26.1 27.0 22.0 78 2.7 NNE 20 26 11 14 1015.3 1015.2 0.0
22/11:00am 27.5 30.1 22.0 72 3.7 NNE 11 17 6 9 1015.4 1015.3 0.0
22/10:30am 27.6 30.6 21.9 71 3.8 NE 9 13 5 7 1015.6 1015.5 0.0
22/10:00am 26.9 29.9 21.9 74 3.3 NNE 9 15 5 8 1015.9 1015.8 0.0
22/09:30am 25.8 29.2 21.7 78 2.7 NW 6 9 3 5 1016.1 1016.0 0.0
22/09:00am 24.8 29.4 21.7 83 2.1 CALM 0 6 0 3 1016.4 1016.3 3.6
22/08:30am 24.0 27.2 22.3 90 1.1 WSW 9 11 5 6 1016.3 1016.2 3.6
22/08:00am 23.5 27.0 21.9 91 1.1 S 6 7 3 4 1016.4 1016.3 3.6
22/07:38am 23.2 27.7 21.6 91 1.1 CALM 0 6 0 3 1016.4 1016.3 3.6
22/07:30am 23.2 26.7 21.8 92 0.9 N 6 9 3 5 1016.4 1016.3 3.4
22/07:27am 23.2 26.4 21.6 91 1.1 N 7 9 4 5 1016.3 1016.2 3.4
22/07:20am 23.4 27.4 22.0 92 0.9 N 4 9 2 5 1016.3 1016.2 2.8
22/07:00am 23.5 28.3 22.1 92 0.9 CALM 0 0 0 0 1015.9 1015.8 2.0
22/06:30am 23.3 26.9 22.1 93 0.8 SW 6 7 3 4 1015.5 1015.4 2.0
22/06:19am 23.3 26.9 22.1 93 0.8 W 6 7 3 4 1015.6 1015.5 2.0
22/06:00am 23.3 27.3 22.1 93 0.8 WSW 4 6 2 3 1015.4 1015.3 2.0
22/05:30am 23.3 27.2 21.9 92 0.9 SSW 4 7 2 4 1015.1 1015.0 2.0
22/05:00am 23.3 26.7 21.7 91 1.1 NW 6 7 3 4 1014.9 1014.8 2.0
22/04:30am 23.8 27.3 22.1 90 1.1 NNW 7 9 4 5 1014.8 1014.7 2.0
22/04:00am 23.9 28.4 22.3 91 1.1 E 2 7 1 4 1014.4 1014.3 2.0
22/03:43am 23.9 28.4 22.3 91 1.1 ENE 2 6 1 3 1014.4 1014.3 2.0
22/03:32am 23.8 27.5 22.2 91 1.1 ESE 6 7 3 4 1014.4 1014.3 2.0
22/03:30am 23.9 27.8 22.5 92 0.9 ESE 6 7 3 4 1014.4 1014.3 2.0
22/03:00am 23.7 28.5 22.1 91 1.1 CALM 0 0 0 0 1014.4 1014.3 2.0
22/02:30am 23.7 27.7 22.1 91 1.1 ENE 4 6 2 3 1014.6 1014.5 2.0
22/02:00am 23.6 27.6 22.0 91 1.1 SSE 4 11 2 6 1014.9 1014.8 2.0
22/01:30am 23.4 26.8 22.0 92 0.9 S 7 9 4 5 1014.9 1014.8 2.0
22/01:00am 23.5 26.6 22.1 92 0.9 SSE 9 11 5 6 1015.2 1015.1 2.0
22/12:30am 23.8 27.5 22.2 91 1.1 S 6 7 3 4 1015.5 1015.4 2.0
22/12:00am 23.7 26.7 22.0 90 1.1 E 9 13 5 7 1015.8 1015.7 1.6
 
Date/Time
EST
Temp
°C
App
Temp
°C
Dew
Point
°C
Rel
Hum
%
Delta-T
°C
Wind Press
QNH
hPa
Press
MSL
hPa
Rain since
9am
mm
Dir  Spd
km/h
Gust
km/h
Spd
kts
Gust
kts
21/11:30pm 24.1 26.5 21.6 86 1.7 ESE 11 15 6 8 1015.8 1015.7 0.6
21/11:00pm 24.1 27.4 21.8 87 1.5 SE 7 11 4 6 1015.9 1015.8 0.6
21/10:30pm 24.0 26.9 21.7 87 1.5 SE 9 13 5 7 1016.0 1015.9 0.6
21/10:00pm 24.3 26.9 22.0 87 1.5 E 11 17 6 9 1016.0 1015.9 0.6
21/09:30pm 24.4 27.1 22.1 87 1.5 E 11 15 6 8 1016.3 1016.2 0.6
21/09:00pm 24.5 27.4 22.4 88 1.4 E 11 15 6 8 1016.2 1016.1 0.6
21/08:30pm 24.4 26.7 22.1 87 1.5 ENE 13 19 7 10 1016.1 1016.0 0.6
21/08:00pm 24.9 27.6 22.2 85 1.8 ESE 11 13 6 7 1015.9 1015.8 0.4
21/07:30pm 25.5 27.9 21.6 79 2.6 E 11 17 6 9 1015.5 1015.4 0.0
21/07:00pm 25.7 27.5 21.1 76 3.0 E 13 19 7 10 1015.1 1015.0 0.0
21/06:30pm 25.7 28.0 21.4 77 2.9 ENE 11 17 6 9 1014.7 1014.6 0.0
21/06:00pm 26.2 27.7 21.2 74 3.3 ENE 15 19 8 10 1014.5 1014.4 0.0
21/05:30pm 26.7 28.5 21.2 72 3.6 ENE 13 19 7 10 1014.5 1014.4 0.0
21/05:00pm 27.1 28.3 20.7 68 4.2 NE 15 20 8 11 1014.4 1014.3 0.0
21/04:30pm 27.1 29.1 21.6 72 3.7 NE 13 19 7 10 1014.4 1014.3 0.0
21/04:00pm 27.6 28.1 20.9 67 4.4 NE 19 22 10 12 1014.6 1014.5 0.0
21/03:30pm 28.4 29.1 21.2 65 4.8 NE 19 22 10 12 1014.6 1014.5 0.0
21/03:00pm 28.4 29.1 20.4 62 5.3 NE 17 22 9 12 1014.8 1014.7 0.0
21/02:30pm 28.6 29.2 20.3 60 5.5 ENE 17 28 9 15 1014.8 1014.7 0.0
21/02:00pm 28.6 29.2 21.1 64 5.0 NE 19 26 10 14 1015.0 1014.9 0.0
21/01:30pm 28.5 28.8 20.5 62 5.3 ENE 19 24 10 13 1015.3 1015.2 0.0
21/01:00pm 28.2 28.4 20.5 63 5.1 NE 20 30 11 16 1015.5 1015.4 0.0
21/12:30pm 28.1 28.5 20.6 63 4.9 NE 19 24 10 13 1015.8 1015.7 0.0
21/12:00pm 28.0 28.5 20.0 61 5.2 ENE 17 26 9 14 1016.1 1016.0 0.0
21/11:30am 27.8 28.4 21.3 67 4.3 ENE 20 28 11 15 1016.4 1016.3 0.0
21/11:00am 27.6 28.4 21.4 69 4.1 E 19 24 10 13 1016.6 1016.5 0.0
21/10:30am 27.4 29.1 22.4 74 3.4 E 17 22 9 12 1016.8 1016.7 0.0
21/10:00am 26.4 28.1 22.3 78 2.8 E 17 22 9 12 1017.0 1016.9 0.0
21/09:30am 26.0 27.7 22.3 80 2.5 E 17 20 9 11 1017.0 1016.9 0.0
21/09:00am 25.7 28.3 22.6 83 2.1 ESE 13 15 7 8 1017.0 1016.9 50.6
21/08:30am 24.9 27.6 22.2 85 1.8 ESE 11 15 6 8 1016.9 1016.8 50.6
21/08:00am 24.1 26.8 22.2 89 1.3 ESE 11 17 6 9 1016.7 1016.6 50.6
21/07:30am 23.7 26.9 22.3 92 0.9 SE 9 13 5 7 1016.4 1016.3 50.6
21/07:00am 23.3 26.4 22.1 93 0.8 ESE 9 11 5 6 1016.0 1015.9 50.6
21/06:30am 23.0 26.8 21.6 92 0.9 ENE 4 9 2 5 1016.1 1016.0 50.6
21/06:00am 22.8 25.2 21.6 93 0.8 E 11 13 6 7 1016.0 1015.9 50.6
21/05:31am 22.7 24.7 21.5 93 0.8 E 13 19 7 10 1015.8 1015.7 50.6
21/05:30am 22.7 24.7 21.5 93 0.8 E 13 19 7 10 1015.8 1015.7 50.6
21/05:16am 22.5 24.0 21.3 93 0.8 ENE 15 22 8 12 1015.8 1015.7 50.2
21/05:00am 22.7 25.6 21.7 94 0.7 E 9 19 5 10 1015.8 1015.7 49.0
21/04:34am 22.8 25.7 21.8 94 0.7 E 9 13 5 7 1015.6 1015.5 48.8
21/04:30am 22.8 25.7 21.8 94 0.7 E 9 13 5 7 1015.6 1015.5 48.4
21/04:09am 22.8 25.7 21.8 94 0.7 NE 9 11 5 6 1015.4 1015.3 47.4
21/04:00am 22.9 26.1 21.7 93 0.8 NE 7 11 4 6 1015.4 1015.3 47.4
21/03:34am 22.9 25.5 21.9 94 0.7 E 11 15 6 8 1015.1 1015.0 47.2
21/03:30am 22.9 25.1 21.9 94 0.7 E 13 17 7 9 1015.1 1015.0 47.2
21/03:00am 23.0 25.6 22.0 94 0.7 E 11 15 6 8 1015.2 1015.1 47.2
21/02:48am 23.0 25.3 22.0 94 0.7 E 13 17 7 9 1015.2 1015.1 47.2
21/02:30am 23.0 25.3 22.0 94 0.7 ESE 13 22 7 12 1015.4 1015.3 46.6
21/02:28am 23.2 25.6 22.2 94 0.7 E 13 22 7 12 1015.4 1015.3 46.2
21/02:25am 23.3 26.1 22.3 94 0.7 ENE 11 17 6 9 1015.4 1015.3 44.8
21/02:03am 23.2 26.7 22.2 94 0.7 NE 7 11 4 6 1015.4 1015.3 44.6
21/02:00am 23.2 26.7 22.2 94 0.7 NE 7 11 4 6 1015.4 1015.3 44.6
21/01:43am 23.2 25.9 22.2 94 0.7 NE 11 15 6 8 1015.3 1015.2 44.6
21/01:41am 23.2 25.9 22.2 94 0.7 NE 11 15 6 8 1015.3 1015.2 44.6
21/01:30am 23.1 25.1 22.3 95 0.5 NE 15 20 8 11 1015.6 1015.5 44.4
21/01:11am 23.1 24.2 22.3 95 0.5 NE 20 30 11 16 1015.7 1015.6 38.4
21/01:01am 23.1 24.7 22.1 94 0.7 NNE 17 28 9 15 1015.8 1015.7 35.2
21/01:00am 23.1 24.7 22.1 94 0.7 NNE 17 24 9 13 1015.8 1015.7 34.8
21/12:55am 23.1 25.4 22.1 94 0.7 NE 13 20 7 11 1015.8 1015.7 33.8
21/12:44am 23.1 26.3 22.3 95 0.5 NNE 9 13 5 7 1015.9 1015.8 32.8
21/12:30am 23.1 24.8 22.3 95 0.5 N 17 24 9 13 1015.9 1015.8 30.2
21/12:17am 23.3 26.9 22.3 94 0.7 NNW 7 19 4 10 1015.8 1015.7 22.0
21/12:00am 23.3 26.9 22.3 94 0.7 S 7 9 4 5 1015.7 1015.6 19.8
 
Date/Time
EST
Temp
°C
App
Temp
°C
Dew
Point
°C
Rel
Hum
%
Delta-T
°C
Wind Press
QNH
hPa
Press
MSL
hPa
Rain since
9am
mm
Dir  Spd
km/h
Gust
km/h
Spd
kts
Gust
kts
20/11:30pm 23.2 25.9 22.2 94 0.7 SSW 11 13 6 7 1016.1 1016.0 19.8
20/11:14pm 23.1 27.1 22.1 94 0.7 W 4 7 2 4 1016.3 1016.2 19.8
20/11:00pm 23.2 27.3 22.2 94 0.7 SSW 4 7 2 4 1016.4 1016.3 19.2
20/10:30pm 23.1 27.4 21.9 93 0.8 SSW 2 7 1 4 1016.4 1016.3 19.0
20/10:00pm 23.2 26.8 22.0 93 0.8 SSE 6 7 3 4 1016.4 1016.3 18.8
20/09:30pm 23.2 26.6 21.6 91 1.1 ESE 6 9 3 5 1016.7 1016.6 17.6
20/09:00pm 23.2 26.0 21.6 91 1.1 ESE 9 11 5 6 1016.8 1016.7 17.6
20/08:30pm 23.3 25.9 21.9 92 0.9 E 11 15 6 8 1016.6 1016.5 17.4
20/08:00pm 23.4 26.0 22.0 92 0.9 ESE 11 13 6 7 1016.3 1016.2 17.4
20/07:39pm 23.3 26.3 21.9 92 0.9 ENE 9 15 5 8 1016.3 1016.2 17.4
20/07:30pm 23.4 26.9 22.2 93 0.8 NE 7 11 4 6 1016.3 1016.2 16.2
20/07:25pm 23.4 26.9 22.2 93 0.8 NNE 7 11 4 6 1016.3 1016.2 15.8
20/07:00pm 23.5 25.7 21.9 91 1.1 E 13 17 7 9 1016.0 1015.9 15.4
20/06:30pm 23.3 25.5 21.9 92 0.9 SE 13 17 7 9 1015.6 1015.5 15.4
20/06:29pm 23.3 25.5 21.9 92 0.9 SE 13 17 7 9 1015.6 1015.5 15.4

Latest Capital City Observations: Canberra | Sydney | Melbourne | Brisbane | Adelaide | Perth | Hobart | Darwin

Other Formats:

Comma delimited format used in spreadsheet applications
http://www.bom.gov.au/fwo/IDQ60901/IDQ60901.94575.axf

JavaScript Object Notation format (JSON) in row-major order
http://www.bom.gov.au/fwo/IDQ60901/IDQ60901.94575.json